Time;durP1;ratioP1;P1;durP2;ratioP2;P2;SDS_P1;SDS_P2;PMS_P1;PMS_P2;Temp;Humidity;BMP_temperature;BMP_pressure;BME280_temperature;BME280_humidity;BME280_pressure;Samples;Min_cycle;Max_cycle;Signal;HPM_P1;HPM_P2
2022/03/08 00:00:17;;;;;;;3.95;1.98;;;;;;;;;;5013769;28;20570;-77
2022/03/08 00:02:44;;;;;;;2.80;1.80;;;;;;;;;;5012779;28;20030;-75
2022/03/08 00:05:10;;;;;;;2.75;1.65;;;;;;;;;;5014201;28;20508;-80
2022/03/08 00:07:36;;;;;;;2.42;1.63;;;;;;;;;;5013925;28;20037;-77
2022/03/08 00:10:03;;;;;;;3.33;1.88;;;;;;;;;;5013975;28;20022;-81
2022/03/08 00:12:29;;;;;;;2.95;1.83;;;;;;;;;;5013889;28;20049;-74
2022/03/08 00:14:55;;;;;;;3.42;2.05;;;;;;;;;;5013912;28;20026;-73
2022/03/08 00:17:21;;;;;;;3.30;1.88;;;;;;;;;;5013805;28;20073;-78
2022/03/08 00:19:47;;;;;;;5.35;1.95;;;;;;;;;;5012286;28;20130;-77
2022/03/08 00:22:13;;;;;;;3.05;2.10;;;;;;;;;;5012489;28;20049;-83
2022/03/08 00:24:39;;;;;;;2.38;1.88;;;;;;;;;;5013537;28;20061;-74
2022/03/08 00:27:06;;;;;;;3.15;1.80;;;;;;;;;;5013772;28;20026;-79
2022/03/08 00:29:31;;;;;;;2.80;1.77;;;;;;;;;;5013023;28;20026;-76
2022/03/08 00:31:58;;;;;;;2.47;1.80;;;;;;;;;;5012231;28;20041;-76
2022/03/08 00:34:24;;;;;;;3.63;1.90;;;;;;;;;;5013823;28;20038;-77
2022/03/08 00:36:50;;;;;;;2.50;1.60;;;;;;;;;;5012713;28;20038;-75
2022/03/08 00:39:16;;;;;;;2.38;1.55;;;;;;;;;;5013366;28;20109;-77
2022/03/08 00:41:43;;;;;;;2.67;1.90;;;;;;;;;;5013204;28;20397;-79
2022/03/08 00:44:09;;;;;;;3.20;1.80;;;;;;;;;;5013265;28;20033;-82
2022/03/08 00:46:35;;;;;;;2.70;2.30;;;;;;;;;;5013127;28;20386;-76
2022/03/08 00:49:01;;;;;;;3.17;1.80;;;;;;;;;;5013276;28;20026;-80
2022/03/08 00:51:27;;;;;;;3.63;2.20;;;;;;;;;;5008502;28;20034;-74
2022/03/08 00:53:53;;;;;;;2.42;1.90;;;;;;;;;;4993794;28;20541;-79
2022/03/08 00:56:19;;;;;;;2.90;2.08;;;;;;;;;;5008537;28;20081;-77
2022/03/08 00:58:45;;;;;;;3.80;2.03;;;;;;;;;;4993250;28;20502;-75
2022/03/08 01:01:11;;;;;;;2.70;1.80;;;;;;;;;;5008470;28;20418;-76
2022/03/08 01:03:37;;;;;;;3.60;1.80;;;;;;;;;;4993153;28;20380;-82
2022/03/08 01:06:03;;;;;;;3.70;1.88;;;;;;;;;;5002297;28;20052;-75
2022/03/08 01:08:29;;;;;;;3.47;2.15;;;;;;;;;;5011443;28;20067;-75
2022/03/08 01:10:55;;;;;;;2.88;2.08;;;;;;;;;;5013175;28;20022;-76
2022/03/08 01:13:21;;;;;;;2.92;1.88;;;;;;;;;;5012872;28;20414;-74
2022/03/08 01:15:47;;;;;;;3.85;1.98;;;;;;;;;;5012670;28;20108;-78
2022/03/08 01:18:13;;;;;;;2.72;2.00;;;;;;;;;;5011508;28;20137;-79
2022/03/08 01:20:40;;;;;;;3.13;2.10;;;;;;;;;;5012257;28;20026;-75
2022/03/08 01:23:06;;;;;;;2.55;1.98;;;;;;;;;;5012755;28;20030;-80
2022/03/08 01:25:32;;;;;;;2.30;1.60;;;;;;;;;;5012657;28;20110;-78
2022/03/08 01:27:58;;;;;;;3.13;1.92;;;;;;;;;;5012740;28;20022;-75
2022/03/08 01:30:25;;;;;;;4.25;1.92;;;;;;;;;;5012770;28;20029;-77
2022/03/08 01:32:51;;;;;;;2.70;2.13;;;;;;;;;;5012318;28;20539;-75
2022/03/08 01:35:18;;;;;;;2.72;1.95;;;;;;;;;;5012055;28;20030;-75
2022/03/08 01:37:44;;;;;;;2.28;1.70;;;;;;;;;;5012072;28;20044;-75
2022/03/08 01:40:14;;;;;;;2.92;2.10;;;;;;;;;;5012470;28;20018;-76
2022/03/08 01:42:42;;;;;;;2.88;1.88;;;;;;;;;;5012322;28;20081;-82
2022/03/08 01:45:08;;;;;;;3.97;2.40;;;;;;;;;;5012379;28;20113;-76
2022/03/08 01:47:34;;;;;;;3.33;2.30;;;;;;;;;;5012233;28;20021;-78
2022/03/08 01:50:00;;;;;;;3.25;2.15;;;;;;;;;;5011678;28;20029;-78
2022/03/08 01:52:28;;;;;;;3.03;1.98;;;;;;;;;;5012089;28;20112;-79
2022/03/08 01:54:54;;;;;;;3.15;2.10;;;;;;;;;;5012592;28;20033;-79
2022/03/08 01:57:23;;;;;;;3.00;1.77;;;;;;;;;;5012237;28;20026;-77
2022/03/08 01:59:50;;;;;;;2.85;2.03;;;;;;;;;;5010808;28;20064;-78
2022/03/08 02:02:16;;;;;;;2.85;1.92;;;;;;;;;;5010833;28;20130;-75
2022/03/08 02:04:42;;;;;;;4.60;2.42;;;;;;;;;;5011804;28;20037;-74
2022/03/08 02:07:09;;;;;;;2.70;2.38;;;;;;;;;;5011407;28;20026;-78
2022/03/08 02:09:36;;;;;;;3.35;2.08;;;;;;;;;;5011763;28;20025;-83
2022/03/08 02:12:03;;;;;;;2.47;1.98;;;;;;;;;;5012040;28;20032;-78
2022/03/08 02:14:29;;;;;;;3.38;2.13;;;;;;;;;;5011909;28;20168;-80
2022/03/08 02:16:55;;;;;;;3.15;2.10;;;;;;;;;;5012216;28;20401;-78
2022/03/08 02:19:21;;;;;;;3.42;2.25;;;;;;;;;;5011337;28;20082;-76
2022/03/08 02:21:47;;;;;;;3.75;2.05;;;;;;;;;;5011425;28;20033;-74
2022/03/08 02:24:13;;;;;;;2.85;1.92;;;;;;;;;;5011832;28;20026;-77
2022/03/08 02:26:39;;;;;;;3.53;2.25;;;;;;;;;;5011577;28;20383;-78
2022/03/08 02:29:06;;;;;;;4.28;2.42;;;;;;;;;;5011712;28;20497;-74
2022/03/08 02:31:32;;;;;;;3.10;2.38;;;;;;;;;;5011190;28;20030;-76
2022/03/08 02:33:58;;;;;;;3.33;2.67;;;;;;;;;;5011755;28;20034;-82
2022/03/08 02:36:24;;;;;;;3.67;2.78;;;;;;;;;;5011764;28;20033;-82
2022/03/08 02:38:50;;;;;;;3.45;2.95;;;;;;;;;;5011461;28;20045;-78
2022/03/08 02:41:16;;;;;;;4.15;3.25;;;;;;;;;;5011422;28;20022;-75
2022/03/08 02:43:42;;;;;;;4.47;3.33;;;;;;;;;;5011189;28;20037;-78
2022/03/08 02:46:08;;;;;;;6.28;3.65;;;;;;;;;;5011430;28;20034;-74
2022/03/08 02:48:34;;;;;;;3.90;3.25;;;;;;;;;;5011213;28;20030;-73
2022/03/08 02:51:01;;;;;;;3.78;3.17;;;;;;;;;;5011164;28;20105;-77
2022/03/08 02:53:27;;;;;;;4.75;3.60;;;;;;;;;;5011639;28;20025;-75
2022/03/08 02:55:53;;;;;;;4.30;3.58;;;;;;;;;;5011579;28;20493;-74
2022/03/08 02:58:19;;;;;;;4.90;4.10;;;;;;;;;;5011228;28;20132;-76
2022/03/08 03:00:46;;;;;;;5.38;4.22;;;;;;;;;;5011040;28;20018;-79
2022/03/08 03:03:12;;;;;;;5.20;4.10;;;;;;;;;;5009954;28;20038;-75
2022/03/08 03:05:38;;;;;;;5.20;4.28;;;;;;;;;;5010516;28;20470;-74
2022/03/08 03:08:05;;;;;;;4.75;3.75;;;;;;;;;;5011208;28;20037;-79
2022/03/08 03:10:31;;;;;;;6.07;4.40;;;;;;;;;;5010938;28;20026;-79
2022/03/08 03:12:57;;;;;;;5.30;4.30;;;;;;;;;;5011525;28;20076;-76
2022/03/08 03:15:24;;;;;;;6.20;4.38;;;;;;;;;;5011677;28;20440;-81
2022/03/08 03:17:51;;;;;;;4.72;3.47;;;;;;;;;;5011044;28;20042;-83
2022/03/08 03:20:18;;;;;;;5.47;4.65;;;;;;;;;;5011245;28;20030;-82
2022/03/08 03:22:44;;;;;;;5.25;4.47;;;;;;;;;;5011008;28;20049;-80
2022/03/08 03:25:10;;;;;;;4.95;4.20;;;;;;;;;;5011113;28;20053;-82
2022/03/08 03:27:37;;;;;;;5.05;4.35;;;;;;;;;;5009671;28;20037;-81
2022/03/08 03:30:05;;;;;;;5.10;4.43;;;;;;;;;;5012880;28;20022;-81
2022/03/08 03:32:31;;;;;;;4.75;4.18;;;;;;;;;;5013189;28;20041;-78
2022/03/08 03:34:57;;;;;;;5.95;4.50;;;;;;;;;;5014872;28;20026;-81
2022/03/08 03:37:23;;;;;;;5.43;4.68;;;;;;;;;;5013724;28;20052;-73
2022/03/08 03:39:50;;;;;;;6.60;4.55;;;;;;;;;;5014381;28;20028;-74
2022/03/08 03:42:16;;;;;;;4.88;4.00;;;;;;;;;;5014609;28;20026;-77
2022/03/08 03:44:42;;;;;;;5.25;4.03;;;;;;;;;;5014073;28;20026;-80
2022/03/08 03:47:08;;;;;;;5.00;4.32;;;;;;;;;;5014512;28;20034;-84
2022/03/08 03:49:34;;;;;;;6.55;4.68;;;;;;;;;;5012951;28;20398;-82
2022/03/08 03:52:00;;;;;;;5.25;4.22;;;;;;;;;;5013198;28;20026;-75
2022/03/08 03:54:27;;;;;;;5.05;4.20;;;;;;;;;;5013635;28;20033;-79
2022/03/08 03:56:53;;;;;;;5.72;4.50;;;;;;;;;;5014644;28;20045;-75
2022/03/08 03:59:19;;;;;;;4.75;3.97;;;;;;;;;;5012901;28;20025;-79
2022/03/08 04:01:45;;;;;;;6.50;4.65;;;;;;;;;;5014039;28;20037;-74
2022/03/08 04:04:11;;;;;;;5.20;4.15;;;;;;;;;;5014141;28;20026;-74
2022/03/08 04:06:37;;;;;;;5.40;4.20;;;;;;;;;;5014014;28;20026;-80
2022/03/08 04:09:04;;;;;;;5.70;4.38;;;;;;;;;;5014204;28;20026;-77
2022/03/08 04:11:30;;;;;;;6.65;4.38;;;;;;;;;;5013896;28;20460;-78
2022/03/08 04:13:56;;;;;;;6.53;4.75;;;;;;;;;;5014071;28;20032;-78
2022/03/08 04:16:22;;;;;;;4.25;3.40;;;;;;;;;;5014169;28;20030;-78
2022/03/08 04:18:48;;;;;;;5.13;4.05;;;;;;;;;;5013222;28;20044;-79
2022/03/08 04:21:14;;;;;;;4.95;3.85;;;;;;;;;;5013755;28;20022;-77
2022/03/08 04:23:40;;;;;;;5.65;4.15;;;;;;;;;;5013463;28;20114;-80
2022/03/08 04:26:06;;;;;;;6.00;4.82;;;;;;;;;;5011310;28;20113;-74
2022/03/08 04:28:32;;;;;;;5.28;3.97;;;;;;;;;;5013309;28;20033;-76
2022/03/08 04:30:58;;;;;;;5.63;4.32;;;;;;;;;;5013459;28;20030;-75
2022/03/08 04:33:24;;;;;;;5.18;3.55;;;;;;;;;;5013629;28;20057;-79
2022/03/08 04:35:50;;;;;;;5.03;3.80;;;;;;;;;;5013286;28;20022;-77
2022/03/08 04:38:16;;;;;;;5.60;4.22;;;;;;;;;;5013419;28;20034;-81
2022/03/08 04:40:42;;;;;;;5.78;4.50;;;;;;;;;;5012775;28;20083;-75
2022/03/08 04:43:08;;;;;;;4.75;4.13;;;;;;;;;;5012891;28;20025;-83
2022/03/08 04:45:34;;;;;;;5.28;4.22;;;;;;;;;;5013101;28;20402;-76
2022/03/08 04:48:00;;;;;;;4.90;3.55;;;;;;;;;;5011982;28;20018;-74
2022/03/08 04:50:26;;;;;;;6.65;4.25;;;;;;;;;;5013543;28;20398;-76
2022/03/08 04:52:52;;;;;;;5.15;4.65;;;;;;;;;;5011743;28;20033;-74
2022/03/08 04:55:19;;;;;;;5.93;4.53;;;;;;;;;;5013072;28;20471;-79
2022/03/08 04:57:45;;;;;;;4.65;3.75;;;;;;;;;;5012462;28;20038;-75
2022/03/08 05:00:12;;;;;;;5.38;4.07;;;;;;;;;;5013002;28;20022;-75
2022/03/08 05:02:39;;;;;;;5.47;3.88;;;;;;;;;;5012991;28;20437;-78
2022/03/08 05:05:09;;;;;;;5.00;4.47;;;;;;;;;;5013158;28;20029;-79
2022/03/08 05:07:38;;;;;;;5.70;4.47;;;;;;;;;;5012761;28;20030;-75
2022/03/08 05:10:05;;;;;;;5.53;4.15;;;;;;;;;;5012966;28;20084;-77
2022/03/08 05:12:31;;;;;;;4.53;3.70;;;;;;;;;;5012369;28;20030;-76
2022/03/08 05:14:58;;;;;;;4.60;3.97;;;;;;;;;;5013148;28;20517;-75
2022/03/08 05:17:24;;;;;;;5.13;4.10;;;;;;;;;;5011544;28;20062;-73
2022/03/08 05:19:50;;;;;;;6.25;4.55;;;;;;;;;;5012689;28;20029;-74
2022/03/08 05:22:16;;;;;;;5.75;3.90;;;;;;;;;;5012768;28;20018;-79
2022/03/08 05:24:42;;;;;;;4.53;3.88;;;;;;;;;;5012641;28;20486;-80
2022/03/08 05:27:08;;;;;;;4.68;3.90;;;;;;;;;;5012749;28;20032;-79
2022/03/08 05:29:34;;;;;;;5.50;3.88;;;;;;;;;;5012779;28;20022;-80
2022/03/08 05:32:01;;;;;;;5.72;4.68;;;;;;;;;;5012887;28;20037;-78
2022/03/08 05:34:27;;;;;;;4.50;3.83;;;;;;;;;;5012990;28;20030;-78
2022/03/08 05:36:53;;;;;;;5.13;4.35;;;;;;;;;;5012236;28;20644;-83
2022/03/08 05:39:20;;;;;;;5.50;3.85;;;;;;;;;;5012530;28;20057;-80
2022/03/08 05:41:46;;;;;;;5.13;4.20;;;;;;;;;;5011837;28;20026;-81
2022/03/08 05:44:11;;;;;;;4.63;4.03;;;18.30;43.10;;;;;;5012531;28;20034;-80
2022/03/08 05:46:37;;;;;;;7.13;4.40;;;;;;;;;;5011994;28;20104;-78
2022/03/08 05:49:03;;;;;;;4.60;3.65;;;;;;;;;;5012673;28;20029;-77
2022/03/08 05:51:29;;;;;;;4.03;3.63;;;;;;;;;;5012122;28;20026;-76
2022/03/08 05:53:55;;;;;;;4.10;3.50;;;;;;;;;;5011947;28;20026;-81
2022/03/08 05:56:21;;;;;;;5.50;4.43;;;;;;;;;;5011848;28;20040;-80
2022/03/08 05:58:47;;;;;;;4.35;3.85;;;;;;;;;;5011917;28;20038;-81
2022/03/08 06:01:14;;;;;;;4.38;3.50;;;;;;;;;;5011388;28;20033;-77
2022/03/08 06:03:40;;;;;;;4.80;4.00;;;;;;;;;;5011866;28;20026;-79
2022/03/08 06:06:06;;;;;;;4.75;4.10;;;;;;;;;;5011269;28;20071;-77
2022/03/08 06:08:32;;;;;;;5.35;4.43;;;;;;;;;;5011095;28;20041;-75
2022/03/08 06:10:58;;;;;;;4.97;4.25;;;;;;;;;;5011605;28;20497;-76
2022/03/08 06:13:24;;;;;;;5.13;3.63;;;;;;;;;;5027148;28;20444;-82
2022/03/08 06:15:50;;;;;;;5.65;4.03;;;;;;;;;;5010730;28;20053;-82
2022/03/08 06:18:16;;;;;;;5.03;4.00;;;;;;;;;;5011642;28;20034;-76
2022/03/08 06:20:42;;;;;;;4.68;3.85;;;;;;;;;;5011373;28;20021;-77
2022/03/08 06:23:08;;;;;;;5.45;4.38;;;;;;;;;;5011622;28;20026;-74
2022/03/08 06:25:34;;;;;;;5.65;4.15;;;;;;;;;;5011269;28;20022;-75
2022/03/08 06:28:00;;;;;;;5.15;3.90;;;;;;;;;;5011555;28;20018;-74
2022/03/08 06:30:26;;;;;;;5.45;4.32;;;;;;;;;;5011047;28;20401;-75
2022/03/08 06:32:52;;;;;;;5.03;4.03;;;;;;;;;;5010462;28;20485;-80
2022/03/08 06:35:19;;;;;;;6.00;4.60;;;;;;;;;;5011145;28;20084;-77
2022/03/08 06:37:45;;;;;;;5.50;3.92;;;;;;;;;;5011245;28;20505;-76
2022/03/08 06:40:11;;;;;;;5.40;4.00;;;;;;;;;;5011383;28;20030;-76
2022/03/08 06:42:37;;;;;;;5.05;4.15;;;18.10;40.50;;;;;;5011300;28;20498;-76
2022/03/08 06:45:07;;;;;;;4.85;3.63;;;18.00;40.50;;;;;;5010767;28;20032;-75
2022/03/08 06:47:32;;;;;;;5.28;4.30;;;18.00;40.50;;;;;;5011227;28;20073;-74
2022/03/08 06:49:58;;;;;;;6.45;4.50;;;18.00;40.40;;;;;;5011134;28;20034;-75
2022/03/08 06:52:24;;;;;;;4.95;3.83;;;18.00;40.40;;;;;;5011420;28;20111;-74
2022/03/08 06:54:49;;;;;;;7.95;4.30;;;18.00;40.50;;;;;;5009777;28;20033;-74
2022/03/08 06:57:15;;;;;;;5.60;3.80;;;18.00;40.60;;;;;;5008760;28;20504;-75
2022/03/08 06:59:41;;;;;;;4.57;4.07;;;18.00;40.60;;;;;;5008862;28;20034;-76
2022/03/08 07:02:07;;;;;;;5.75;3.88;;;18.00;40.90;;;;;;5008389;28;20034;-74
2022/03/08 07:04:32;;;;;;;5.07;3.75;;;18.00;41.20;;;;;;5011245;28;20393;-75
2022/03/08 07:06:58;;;;;;;7.18;4.25;;;18.00;41.10;;;;;;5015515;28;20026;-74
2022/03/08 07:09:24;;;;;;;5.03;3.92;;;18.00;41.60;;;;;;4997405;28;20037;-75
2022/03/08 07:11:50;;;;;;;6.03;4.15;;;18.00;41.60;;;;;;5014156;28;20025;-74
2022/03/08 07:14:17;;;;;;;6.28;4.22;;;;;;;;;;5014376;28;20026;-75
2022/03/08 07:16:43;;;;;;;8.77;4.88;;;;;;;;;;5014319;28;20512;-75
2022/03/08 07:19:09;;;;;;;6.97;4.47;;;;;;;;;;5012802;28;20057;-75
2022/03/08 07:21:35;;;;;;;7.40;4.38;;;;;;;;;;5013613;28;20032;-74
2022/03/08 07:24:01;;;;;;;6.43;4.10;;;;;;;;;;5013390;28;20026;-76
2022/03/08 07:26:27;;;;;;;6.40;4.43;;;;;;;;;;5015160;28;20033;-74
2022/03/08 07:28:53;;;;;;;8.90;4.13;;;;;;;;;;5014552;28;20026;-74
2022/03/08 07:31:19;;;;;;;6.55;4.47;;;;;;;;;;5014531;28;20516;-75
2022/03/08 07:33:45;;;;;;;5.32;4.20;;;;;;;;;;5014422;28;20049;-74
2022/03/08 07:36:11;;;;;;;6.78;4.82;;;;;;;;;;5014691;28;20066;-74
2022/03/08 07:38:38;;;;;;;9.40;4.50;;;;;;;;;;5012155;28;20042;-74
2022/03/08 07:41:04;;;;;;;8.50;4.30;;;;;;;;;;5009455;28;20521;-73
2022/03/08 07:43:31;;;;;;;7.72;4.60;;;;;;;;;;5009413;28;20037;-74
2022/03/08 07:45:56;;;;;;;5.93;4.45;;;;;;;;;;5013028;28;20072;-74
2022/03/08 07:48:23;;;;;;;6.43;4.47;;;;;;;;;;5008647;28;20034;-73
2022/03/08 07:50:49;;;;;;;5.35;4.43;;;;;;;;;;5007129;28;20105;-74
2022/03/08 07:53:15;;;;;;;5.65;3.83;;;;;;;;;;5009611;28;20083;-73
2022/03/08 07:55:41;;;;;;;5.55;4.57;;;;;;;;;;5008708;28;20029;-74
2022/03/08 07:58:11;;;;;;;5.40;4.05;;;;;;;;;;5008485;28;20065;-74
2022/03/08 08:00:38;;;;;;;6.82;4.13;;;;;;;;;;5012842;28;20097;-76
2022/03/08 08:03:04;;;;;;;6.63;4.32;;;;;;;;;;5012798;28;20026;-74
2022/03/08 08:05:30;;;;;;;5.18;4.45;;;;;;;;;;5012561;28;20131;-74
2022/03/08 08:07:56;;;;;;;6.72;4.82;;;;;;;;;;5007963;28;20033;-74
2022/03/08 08:10:22;;;;;;;7.13;4.38;;;;;;;;;;5013995;28;20017;-73
2022/03/08 08:12:48;;;;;;;8.00;4.85;;;;;;;;;;5013778;28;20026;-75
2022/03/08 08:15:14;;;;;;;8.32;4.57;;;;;;;;;;5013471;28;20061;-76
2022/03/08 08:17:41;;;;;;;5.25;3.80;;;;;;;;;;5012662;28;20453;-75
2022/03/08 08:20:08;;;;;;;6.93;4.30;;;;;;;;;;5013684;28;20026;-74
2022/03/08 08:22:34;;;;;;;6.20;4.90;;;;;;;;;;5013675;28;20034;-74
2022/03/08 08:25:00;;;;;;;8.52;4.97;;;;;;;;;;5013735;28;20028;-74
2022/03/08 08:27:26;;;;;;;6.75;4.30;;;;;;;;;;5014069;28;20394;-75
2022/03/08 08:29:52;;;;;;;5.78;4.13;;;;;;;;;;5013309;28;20022;-75
2022/03/08 08:32:18;;;;;;;9.20;4.50;;;;;;;;;;5013483;28;20042;-74
2022/03/08 08:34:44;;;;;;;5.78;4.15;;;;;;;;;;5012534;28;20018;-74
2022/03/08 08:37:11;;;;;;;6.85;4.40;;;;;;;;;;5011866;28;20041;-74
2022/03/08 08:39:37;;;;;;;7.60;5.22;;;;;;;;;;5002237;28;20064;-73
2022/03/08 08:42:03;;;;;;;5.40;4.38;;;;;;;;;;5011792;28;20080;-74
2022/03/08 08:44:29;;;;;;;6.13;4.75;;;;;;;;;;5012403;28;20026;-75
2022/03/08 08:46:55;;;;;;;7.57;4.75;;;;;;;;;;5013569;28;20053;-75
2022/03/08 08:49:21;;;;;;;7.78;4.93;;;;;;;;;;5013459;28;20026;-75
2022/03/08 08:51:47;;;;;;;5.80;4.60;;;;;;;;;;5013000;28;20083;-74
2022/03/08 08:54:13;;;;;;;8.40;4.22;;;;;;;;;;5013165;28;20030;-76
2022/03/08 08:56:39;;;;;;;6.78;4.90;;;;;;;;;;5012797;28;20033;-75
2022/03/08 08:59:05;;;;;;;5.45;4.35;;;;;;;;;;5013021;28;20029;-77
2022/03/08 09:01:32;;;;;;;5.75;4.38;;;;;;;;;;5011567;28;20030;-74
2022/03/08 09:03:58;;;;;;;5.63;4.82;;;;;;;;;;5012004;28;20029;-75
2022/03/08 09:06:24;;;;;;;7.53;4.18;;;;;;;;;;5013287;28;20056;-76
2022/03/08 09:08:50;;;;;;;6.03;4.25;;;;;;;;;;5012682;28;20389;-75
2022/03/08 09:11:16;;;;;;;5.35;4.38;;;;;;;;;;5011769;28;20371;-75
2022/03/08 09:13:43;;;;;;;9.40;4.82;;;;;;;;;;5012518;28;20481;-74
2022/03/08 09:16:09;;;;;;;6.40;4.60;;;;;;;;;;5012730;28;20084;-74
2022/03/08 09:18:35;;;;;;;8.60;4.90;;;;;;;;;;5012461;28;20042;-75
2022/03/08 09:21:01;;;;;;;6.95;4.97;;;;;;;;;;5012696;28;20402;-74
2022/03/08 09:23:27;;;;;;;7.88;4.72;;;;;;;;;;5011882;28;20034;-74
2022/03/08 09:25:53;;;;;;;6.07;4.60;;;;;;;;;;5011290;28;20028;-76
2022/03/08 09:28:19;;;;;;;5.45;4.00;;;;;;;;;;5012407;28;20405;-74
2022/03/08 09:30:48;;;;;;;7.30;4.85;;;;;;;;;;5012140;28;20025;-76
2022/03/08 09:33:14;;;;;;;6.07;4.65;;;;;;;;;;5012493;28;20038;-74
2022/03/08 09:35:40;;;;;;;6.00;4.28;;;;;;;;;;5012062;28;20049;-76
2022/03/08 09:38:06;;;;;;;7.32;5.07;;;;;;;;;;4994622;28;20045;-75
2022/03/08 09:40:32;;;;;;;6.43;4.32;;;;;;;;;;5011759;28;20017;-74
2022/03/08 09:42:59;;;;;;;7.18;4.65;;;;;;;;;;5012551;28;20100;-74
2022/03/08 09:45:25;;;;;;;8.00;4.38;;;;;;;;;;5012509;28;20021;-76
2022/03/08 09:47:51;;;;;;;5.57;4.07;;;;;;;;;;5011945;28;20026;-74
2022/03/08 09:50:18;;;;;;;6.38;4.70;;;;;;;;;;5012202;28;20028;-77
2022/03/08 09:52:45;;;;;;;5.95;4.40;;;;;;;;;;5011946;28;20026;-74
2022/03/08 09:55:12;;;;;;;5.78;4.43;;;;;;;;;;5010794;28;20037;-75
2022/03/08 09:57:38;;;;;;;4.72;4.13;;;;;;;;;;5011772;28;20060;-77
2022/03/08 10:00:05;;;;;;;6.88;4.63;;;;;;;;;;5011280;28;20494;-77
2022/03/08 10:02:51;;;;;;;6.57;4.72;;;;;;;;;;5011936;28;20037;-75
2022/03/08 10:05:20;;;;;;;6.50;4.25;;;;;;;;;;5012194;28;20026;-75
2022/03/08 10:08:01;;;;;;;6.25;4.53;;;;;;;;;;5010367;28;20084;-76
2022/03/08 10:10:30;;;;;;;8.45;4.38;;;;;;;;;;5012285;28;20425;-76
2022/03/08 10:12:57;;;;;;;6.50;4.50;;;;;;;;;;5012069;28;20041;-77
2022/03/08 10:15:22;;;;;;;7.70;3.78;;;;;;;;;;5011771;28;20502;-75
2022/03/08 10:17:49;;;;;;;6.65;4.70;;;;;;;;;;5011274;28;20113;-75
2022/03/08 10:20:28;;;;;;;6.95;4.47;;;;;;;;;;5011701;28;20149;-77
2022/03/08 10:22:54;;;;;;;5.93;4.60;;;;;;;;;;5011529;28;20053;-75
2022/03/08 10:25:22;;;;;;;9.18;4.85;;;;;;;;;;5011692;28;20022;-75
2022/03/08 10:27:51;;;;;;;5.38;4.25;;;;;;;;;;5011587;28;20025;-77
2022/03/08 10:30:17;;;;;;;7.65;4.45;;;;;;;;;;5011652;28;20083;-76
2022/03/08 10:32:43;;;;;;;6.40;4.20;;;;;;;;;;5011222;28;20453;-74
2022/03/08 10:35:10;;;;;;;8.05;4.68;;;;;;;;;;5010266;28;20041;-79
2022/03/08 10:37:37;;;;;;;7.00;4.18;;;;;;;;;;5009899;28;20409;-75
2022/03/08 10:40:04;;;;;;;7.13;5.00;;;;;;;;;;5010955;28;20080;-77
2022/03/08 10:42:31;;;;;;;6.25;4.65;;;;;;;;;;5010796;28;20112;-75
2022/03/08 10:45:01;;;;;;;6.15;4.65;;;;;;;;;;4994071;28;20028;-78
2022/03/08 10:47:29;;;;;;;5.47;4.38;;;;;;;;;;5011524;28;20030;-76
2022/03/08 10:49:59;;;;;;;8.15;4.18;;;;;;;;;;5011702;28;20030;-75
2022/03/08 10:52:35;;;;;;;5.90;4.60;;;;;;;;;;5011661;28;20022;-80
2022/03/08 10:55:13;;;;;;;6.05;4.40;;;;;;;;;;5010905;28;20544;-76
2022/03/08 10:57:39;;;;;;;5.65;4.25;;;;;;;;;;5010848;28;20034;-75
2022/03/08 11:00:11;;;;;;;7.30;5.00;;;;;;;;;;4993606;28;20022;-77
2022/03/08 11:02:46;;;;;;;7.32;4.43;;;;;;;;;;5010242;28;20474;-80
2022/03/08 11:05:12;;;;;;;5.55;4.70;;;;;;;;;;5009637;28;20030;-79
2022/03/08 11:07:38;;;;;;;6.13;4.50;;;;;;;;;;5009239;28;20026;-82
2022/03/08 11:10:05;;;;;;;8.68;5.43;;;;;;;;;;5009698;28;20125;-78
2022/03/08 11:12:31;;;;;;;5.90;4.63;;;;;;;;;;5009016;28;20180;-74
2022/03/08 11:14:57;;;;;;;5.85;4.55;;;;;;;;;;5009847;28;20033;-75
2022/03/08 11:17:26;;;;;;;6.80;4.97;;;;;;;;;;5009412;28;20068;-75
2022/03/08 11:19:52;;;;;;;6.80;5.03;;;;;;;;;;5010383;28;20037;-75
2022/03/08 11:22:19;;;;;;;9.63;5.30;;;;;;;;;;5011156;28;20026;-75
2022/03/08 11:24:45;;;;;;;12.88;5.00;;;;;;;;;;5010824;28;20022;-75
2022/03/08 11:27:13;;;;;;;7.40;4.93;;;18.00;41.60;;;;;;5011099;28;20033;-76
2022/03/08 11:29:39;;;;;;;6.95;4.90;;;19.60;38.90;;;;;;5010792;28;20030;-76
2022/03/08 11:32:11;;;;;;;7.35;4.60;;;19.60;38.90;;;;;;5010949;28;20137;-74
2022/03/08 11:34:44;;;;;;;18.58;5.40;;;19.70;38.90;;;;;;5010808;28;20045;-79
2022/03/08 11:37:19;;;;;;;11.77;4.47;;;19.80;38.80;;;;;;5010938;28;20122;-78
2022/03/08 11:40:10;;;;;;;21.92;5.32;;;19.90;38.70;;;;;;5010716;28;20028;-77
2022/03/08 11:42:41;;;;;;;20.58;5.85;;;20.00;38.80;;;;;;5010763;28;20490;-80
2022/03/08 11:45:28;;;;;;;17.42;6.07;;;;;;;;;;5010598;28;20482;-75
2022/03/08 11:47:55;;;;;;;12.77;5.47;;;;;;;;;;5010477;28;20058;-78
2022/03/08 11:50:24;;;;;;;18.60;5.38;;;20.20;38.70;;;;;;5010776;28;20037;-77
2022/03/08 11:53:07;;;;;;;18.50;5.95;;;;;;;;;;4995778;28;20084;-76
2022/03/08 11:55:36;;;;;;;15.50;5.53;;;20.60;38.90;;;;;;5014167;28;20065;-76
2022/03/08 11:58:06;;;;;;;12.35;5.63;;;;;;;;;;5012954;28;20178;-76
2022/03/08 12:00:34;;;;;;;18.85;5.97;;;;;;;;;;5013980;28;20028;-77
2022/03/08 12:03:05;;;;;;;18.52;5.28;;;20.90;38.10;;;;;;5014077;28;20033;-78
2022/03/08 12:05:56;;;;;;;11.57;5.35;;;23.80;35.80;;;;;;5008713;28;20018;-77
2022/03/08 12:08:22;;;;;;;13.80;5.15;;;;;;;;;;5005433;28;20048;-77
2022/03/08 12:11:01;;;;;;;14.25;5.63;;;;;;;;;;5028852;28;20018;-79
2022/03/08 12:13:37;;;;;;;11.55;5.20;;;;;;;;;;5015914;28;20083;-79
2022/03/08 12:16:09;;;;;;;12.95;4.22;;;25.80;32.20;;;;;;5013115;28;20026;-78
2022/03/08 12:18:41;;;;;;;11.05;4.97;;;;;;;;;;5012894;28;20096;-78
2022/03/08 12:21:25;;;;;;;10.57;5.57;;;30.00;27.90;;;;;;5012454;28;20510;-77
2022/03/08 12:24:01;;;;;;;14.02;6.40;;;30.90;27.20;;;;;;5011616;28;20022;-77
2022/03/08 12:26:38;;;;;;;13.80;7.20;;;31.20;26.90;;;;;;5012176;28;20101;-78
2022/03/08 12:29:23;;;;;;;14.85;6.18;;;31.60;26.80;;;;;;5011759;28;20117;-78
2022/03/08 12:31:58;;;;;;;10.68;6.78;;;31.70;26.60;;;;;;5008055;28;20473;-78
2022/03/08 12:34:35;;;;;;;9.38;5.50;;;32.00;27.00;;;;;;5011448;28;20624;-77
2022/03/08 12:37:06;;;;;;;11.68;6.20;;;32.50;26.00;;;;;;5011400;28;20575;-78
2022/03/08 12:39:56;;;;;;;9.45;6.30;;;33.20;25.80;;;;;;5011577;28;20498;-76
2022/03/08 12:42:25;;;;;;;8.65;5.82;;;33.40;25.60;;;;;;5012495;28;20477;-80
2022/03/08 12:45:17;;;;;;;11.32;5.50;;;33.70;25.30;;;;;;5000048;28;20029;-76
2022/03/08 12:47:44;;;;;;;12.10;6.07;;;33.60;25.40;;;;;;5011106;28;20024;-77
2022/03/08 12:50:17;;;;;;;7.68;5.45;;;33.50;25.80;;;;;;5011494;28;20033;-77
2022/03/08 12:52:48;;;;;;;14.25;7.32;;;;;;;;;;4994104;28;20029;-77
2022/03/08 12:55:18;;;;;;;12.40;7.00;;;;;;;;;;5011693;28;20065;-77
2022/03/08 12:57:46;;;;;;;13.45;6.85;;;;;;;;;;5010894;28;20029;-77
2022/03/08 13:00:34;;;;;;;9.88;6.57;;;;;;;;;;5013330;28;20026;-76
2022/03/08 13:03:01;;;;;;;9.35;6.50;;;;;;;;;;4987779;28;20077;-77
2022/03/08 13:05:27;;;;;;;8.88;6.60;;;;;;;;;;5009611;28;20068;-77
2022/03/08 13:07:54;;;;;;;8.63;6.40;;;;;;;;;;5010766;28;20057;-76
2022/03/08 13:10:20;;;;;;;12.48;7.30;;;;;;;;;;5011621;28;20363;-77
2022/03/08 13:12:54;;;;;;;11.75;7.55;;;;;;;;;;5010795;28;20516;-77
2022/03/08 13:15:23;;;;;;;10.20;6.35;;;32.30;26.00;;;;;;5027772;28;20440;-76
2022/03/08 13:17:51;;;;;;;9.57;6.88;;;23.70;34.60;;;;;;5012429;28;20037;-78
2022/03/08 13:20:45;;;;;;;12.63;6.97;;;23.20;34.30;;;;;;5012731;28;20141;-77
2022/03/08 13:23:17;;;;;;;10.18;6.20;;;23.10;34.60;;;;;;5012803;28;20560;-77
2022/03/08 13:25:45;;;;;;;10.27;6.55;;;22.90;34.70;;;;;;5027573;28;20022;-76
2022/03/08 13:28:14;;;;;;;8.30;6.60;;;22.90;35.00;;;;;;5027117;28;20124;-76
2022/03/08 13:30:50;;;;;;;7.72;6.05;;;22.80;35.30;;;;;;5012119;28;20485;-76
2022/03/08 13:33:30;;;;;;;9.73;6.05;;;22.80;35.00;;;;;;5010582;28;20477;-76
2022/03/08 13:35:59;;;;;;;7.95;6.07;;;22.70;35.20;;;;;;5009428;28;20026;-77
2022/03/08 13:38:36;;;;;;;9.32;6.57;;;22.60;35.30;;;;;;5010500;28;20413;-76
2022/03/08 13:41:05;;;;;;;10.77;5.90;;;22.60;35.40;;;;;;5011516;28;20018;-76
2022/03/08 13:43:35;;;;;;;12.15;6.95;;;22.60;35.60;;;;;;5011481;28;20029;-77
2022/03/08 13:46:03;;;;;;;12.88;6.88;;;22.50;35.50;;;;;;4994108;28;20470;-77
2022/03/08 13:48:31;;;;;;;10.15;6.68;;;22.50;35.70;;;;;;5011971;28;20049;-76
2022/03/08 13:51:04;;;;;;;8.85;5.72;;;22.50;35.70;;;;;;5005515;28;20022;-77
2022/03/08 13:53:30;;;;;;;10.27;6.70;;;22.50;35.80;;;;;;5017993;28;20032;-76
2022/03/08 13:55:56;;;;;;;8.65;6.55;;;;;;;;;;5016330;28;20469;-76
2022/03/08 13:58:23;;;;;;;9.50;6.50;;;;;;;;;;5013353;28;20076;-77
2022/03/08 14:00:50;;;;;;;8.60;6.35;;;;;;;;;;5008229;28;20427;-76
2022/03/08 14:03:16;;;;;;;8.40;5.68;;;;;;;;;;5010975;28;20398;-78
2022/03/08 14:06:01;;;;;;;9.20;6.00;;;;;;;;;;5008043;28;20470;-77
2022/03/08 14:08:27;;;;;;;7.53;5.70;;;;;;;;;;5011496;28;20037;-77
2022/03/08 14:10:54;;;;;;;8.00;5.45;;;;;;;;;;5011632;28;20486;-77
2022/03/08 14:13:20;;;;;;;9.00;5.55;;;22.40;35.90;;;;;;5011585;28;20026;-78
2022/03/08 14:15:59;;;;;;;10.48;6.00;;;22.30;36.90;;;;;;5011001;28;20076;-76
2022/03/08 14:18:26;;;;;;;7.40;5.43;;;22.30;36.80;;;;;;5011653;28;20026;-76
2022/03/08 14:20:52;;;;;;;9.23;5.85;;;22.30;36.90;;;;;;5011451;28;20029;-76